This is the latest recevied weather packets stored in our database for station/object DC0PP-10. If no packets are shown the sender has not sent any weather packets the latest 10 day(s).
| Time | Temp. | Humidity | Pressure | Rain* | Wind** | Luminosity | Snow |
|---|---|---|---|---|---|---|---|
| 1777751742 | 19.44° C | 63% | 1017.4 hPa | - | - | - | - |
| 1777750842 | 20° C | 61% | 1017.3 hPa | - | - | - | - |
| 1777749942 | 20.56° C | 58% | 1017.3 hPa | - | - | - | - |
| 1777749042 | 20.56° C | 59% | 1017.2 hPa | - | - | - | - |
| 1777748142 | 21.11° C | 58% | 1017 hPa | - | - | - | - |
| 1777747241 | 21.67° C | 55% | 1017 hPa | - | - | - | - |
| 1777746345 | 22.22° C | 55% | 1016.9 hPa | - | - | - | - |
| 1777745445 | 22.78° C | 52% | 1016.8 hPa | - | - | - | - |
| 1777744545 | 23.89° C | 48% | 1016.7 hPa | - | - | - | - |
| 1777743645 | 25.56° C | 40% | 1016.5 hPa | - | - | - | - |
| 1777742745 | 26.11° C | 39% | 1016.6 hPa | - | - | - | - |
| 1777741844 | 26.67° C | 37% | 1016.6 hPa | - | - | - | - |
| 1777740944 | 27.22° C | 36% | 1016.8 hPa | - | - | - | - |
| 1777740044 | 27.22° C | 35% | 1016.9 hPa | - | - | - | - |
| 1777739144 | 27.78° C | 35% | 1017.1 hPa | - | - | - | - |
| 1777738244 | 28.33° C | 35% | 1017.2 hPa | - | - | - | - |
| 1777737344 | 28.33° C | 34% | 1017.3 hPa | - | - | - | - |
| 1777736443 | 28.89° C | 34% | 1017.4 hPa | - | - | - | - |
| 1777735543 | 28.89° C | 34% | 1017.6 hPa | - | - | - | - |
| 1777734643 | 28.89° C | 34% | 1017.7 hPa | - | - | - | - |
| 1777733743 | 29.44° C | 34% | 1017.9 hPa | - | - | - | - |
| 1777732843 | 29.44° C | 34% | 1018 hPa | - | - | - | - |
| 1777731943 | 28.89° C | 34% | 1018.1 hPa | - | - | - | - |
| 1777731044 | 28.33° C | 34% | 1018.6 hPa | - | - | - | - |
| 1777730143 | 30° C | 33% | 1018.9 hPa | - | - | - | - |
* Rain since midnight (hover to see other rain measurements)
** Current wind speed in m/s (hover to see current wind gust speed)